Terminal Aerodrome Forecast
Issued by NWS

Home | Current Version | Previous Version | Text Only | Print | Product List | Glossary On
Versions: 1 2 3 4 5 6 7 8 9 10 11 12
497
FTUS45 KVEF 121120
TAFEED
TAF
KEED 121120Z 1212/1312 30005KT P6SM FEW250
     FM121700 01007KT P6SM SKC
     FM130200 32006KT P6SM SKC=

USA.gov is the U.S. government's official web portal to all federal, state and local government web resources and services.